createdAt,value
2023-03-06T00:02:38.675Z,97859.03
2023-03-06T00:08:00.549Z,97853.53
2023-03-06T00:13:22.319Z,97849.97
2023-03-06T00:18:44.152Z,97839.09
2023-03-06T00:24:06.078Z,97840.31
2023-03-06T00:29:27.938Z,97829.72
2023-03-06T00:34:50.623Z,97825.88
2023-03-06T00:40:18.304Z,97827.28
2023-03-06T00:45:40.114Z,97822.53
2023-03-06T00:51:02.026Z,97820.31
2023-03-06T00:56:24.068Z,97814.91
2023-03-06T01:01:46.099Z,97819.75
2023-03-06T01:07:07.933Z,97805.59
2023-03-06T01:12:29.662Z,97799.34
2023-03-06T01:17:57.076Z,97788.66
2023-03-06T01:23:18.800Z,97791.97
2023-03-06T01:28:40.712Z,97774.97
2023-03-06T01:34:02.453Z,97782.59
2023-03-06T01:39:24.226Z,97776.97
2023-03-06T01:45:08.043Z,97773.22
2023-03-06T01:50:29.797Z,97771.47
2023-03-06T01:55:52.080Z,97763.53
2023-03-06T02:01:14.777Z,97758.44
2023-03-06T02:06:39.327Z,97753.31
2023-03-06T02:12:02.254Z,97736.09
2023-03-06T02:17:24.417Z,97721.50
2023-03-06T02:22:53.953Z,97721.25
2023-03-06T02:28:19.671Z,97721.97
2023-03-06T02:33:41.439Z,97709.69
2023-03-06T02:39:03.395Z,97703.97
2023-03-06T02:44:27.477Z,97698.56
2023-03-06T02:49:49.192Z,97693.16
2023-03-06T02:55:11.092Z,97687.22
2023-03-06T03:00:33.404Z,97686.19
2023-03-06T03:05:55.125Z,97684.25
2023-03-06T03:11:16.831Z,97684.25
2023-03-06T03:16:39.266Z,97688.00
2023-03-06T03:22:01.195Z,97684.59
2023-03-06T03:27:22.863Z,97682.38
2023-03-06T03:32:44.607Z,97681.53
2023-03-06T03:38:06.281Z,97669.81
2023-03-06T03:43:28.008Z,97676.53
2023-03-06T03:48:49.678Z,97672.41
2023-03-06T03:54:11.367Z,97658.66
2023-03-06T03:59:33.050Z,97665.28
2023-03-06T04:04:54.851Z,97656.31
2023-03-06T04:10:16.605Z,97655.44
2023-03-06T04:15:38.321Z,97639.47
2023-03-06T04:21:00.039Z,97648.38
2023-03-06T04:26:21.776Z,97641.94
2023-03-06T04:31:43.527Z,97638.19
2023-03-06T04:37:05.490Z,97639.13
2023-03-06T04:42:27.215Z,97622.13
2023-03-06T04:47:49.286Z,97620.22
2023-03-06T04:53:11.035Z,97623.50
2023-03-06T04:58:32.763Z,97620.38
2023-03-06T05:03:54.425Z,97624.41
2023-03-06T05:09:16.120Z,97616.97
2023-03-06T05:14:38.021Z,97604.78
2023-03-06T05:19:59.996Z,97615.16
2023-03-06T05:25:21.694Z,97613.00
2023-03-06T05:30:43.419Z,97606.75
2023-03-06T05:36:07.797Z,97610.41
2023-03-06T05:41:29.583Z,97605.09
2023-03-06T05:46:51.355Z,97601.72
2023-03-06T05:52:13.252Z,97600.22
2023-03-06T05:57:35.038Z,97600.75
2023-03-06T06:03:00.528Z,97603.09
2023-03-06T06:08:22.336Z,97601.72
2023-03-06T06:13:44.220Z,97604.56
2023-03-06T06:19:05.979Z,97607.22
2023-03-06T06:24:27.872Z,97602.03
2023-03-06T06:29:52.795Z,97607.44
2023-03-06T06:35:14.772Z,97607.44
2023-03-06T06:40:36.514Z,97609.03
2023-03-06T06:46:18.717Z,97607.44
2023-03-06T06:51:41.795Z,97606.28
2023-03-06T06:57:03.537Z,97600.19
2023-03-06T07:02:25.291Z,97606.41
2023-03-06T07:07:47.038Z,97606.41
2023-03-06T07:13:08.823Z,97612.31
2023-03-06T07:18:30.593Z,97615.97
2023-03-06T07:23:52.346Z,97622.00
2023-03-06T07:29:14.529Z,97618.09
2023-03-06T07:34:36.264Z,97624.34
2023-03-06T07:39:58.032Z,97623.03
2023-03-06T07:45:19.773Z,97631.75
2023-03-06T07:50:41.980Z,97634.59
2023-03-06T07:56:08.812Z,97637.75
2023-03-06T08:01:30.616Z,97636.63
2023-03-06T08:06:54.015Z,97642.88
2023-03-06T08:12:16.757Z,97633.78
2023-03-06T08:17:38.562Z,97637.72
2023-03-06T08:23:00.315Z,97647.66
2023-03-06T08:28:22.058Z,97642.59
2023-03-06T08:33:43.842Z,97631.94
2023-03-06T08:39:06.512Z,97635.22
2023-03-06T08:44:28.250Z,97646.75
2023-03-06T08:49:50.089Z,97642.16
2023-03-06T08:55:14.137Z,97640.84
2023-03-06T09:00:37.855Z,97656.63
2023-03-06T09:05:59.609Z,97645.00
2023-03-06T09:11:23.926Z,97644.16
2023-03-06T09:16:45.734Z,97644.81
2023-03-06T09:22:07.758Z,97656.38
2023-03-06T09:27:29.637Z,97654.34
2023-03-06T09:32:51.329Z,97652.41
2023-03-06T09:38:13.019Z,97651.88
2023-03-06T09:43:40.336Z,97654.34
2023-03-06T09:49:25.402Z,97662.94
2023-03-06T09:54:54.989Z,97659.81
2023-03-06T10:00:23.822Z,97654.63
2023-03-06T10:06:09.829Z,97657.72
2023-03-06T10:11:39.171Z,97655.63
2023-03-06T10:17:01.968Z,97660.84
2023-03-06T10:22:27.267Z,97657.22
2023-03-06T10:27:57.486Z,97656.97
2023-03-06T10:33:29.523Z,97656.06
2023-03-06T10:38:51.290Z,97653.84
2023-03-06T10:44:12.951Z,97656.19
2023-03-06T10:49:37.101Z,97663.72
2023-03-06T10:55:25.876Z,97659.22
2023-03-06T11:00:47.684Z,97660.94
2023-03-06T11:06:15.053Z,97650.72
2023-03-06T11:11:38.138Z,97652.94
2023-03-06T11:17:00.008Z,97642.03
2023-03-06T11:22:21.804Z,97639.00
2023-03-06T11:27:46.284Z,97633.41
2023-03-06T11:33:19.943Z,97637.75
2023-03-06T11:38:49.003Z,97635.00
2023-03-06T11:44:37.010Z,97623.81
2023-03-06T11:50:20.610Z,97618.09
2023-03-06T11:55:54.440Z,97605.94
2023-03-06T12:01:41.954Z,97604.59
2023-03-06T12:07:27.517Z,97591.69
2023-03-06T12:13:14.567Z,97602.16
2023-03-06T12:18:54.850Z,97587.03
2023-03-06T12:24:46.949Z,97581.75
2023-03-06T12:30:21.189Z,97573.94
2023-03-06T12:35:51.873Z,97574.97
2023-03-06T12:41:36.881Z,97577.03
2023-03-06T12:47:04.833Z,97570.13
2023-03-06T12:52:31.150Z,97572.56
2023-03-06T12:57:53.797Z,97569.97
2023-03-06T13:03:59.470Z,97559.59
2023-03-06T13:09:58.266Z,97558.00
2023-03-06T13:15:46.340Z,97563.19
2023-03-06T13:21:42.080Z,97557.88
2023-03-06T13:27:09.312Z,97555.69
2023-03-06T13:32:33.716Z,97554.00
2023-03-06T13:37:56.891Z,97555.13
2023-03-06T13:43:21.853Z,97555.47
2023-03-06T13:48:45.740Z,97552.22
2023-03-06T13:54:38.738Z,97552.34
2023-03-06T14:00:11.678Z,97549.63
2023-03-06T14:05:42.916Z,97548.72
2023-03-06T14:11:15.242Z,97543.44
2023-03-06T14:16:50.033Z,97532.84
2023-03-06T14:22:18.686Z,97535.44
2023-03-06T14:27:48.148Z,97534.03
2023-03-06T14:33:11.164Z,97530.31
2023-03-06T14:38:43.770Z,97530.44
2023-03-06T14:44:16.610Z,97527.97
2023-03-06T14:49:38.368Z,97526.41
2023-03-06T14:55:00.073Z,97528.66
2023-03-06T15:00:24.378Z,97531.34
2023-03-06T15:05:47.472Z,97526.97
2023-03-06T15:11:09.308Z,97529.31
2023-03-06T15:16:31.412Z,97522.78
2023-03-06T15:21:53.142Z,97520.69
2023-03-06T15:27:19.826Z,97522.72
2023-03-06T15:32:42.857Z,97518.38
2023-03-06T15:38:23.270Z,97525.22
2023-03-06T15:43:45.092Z,97524.59
2023-03-06T15:49:14.347Z,97527.72
2023-03-06T15:54:36.289Z,97528.75
2023-03-06T16:00:00.050Z,97535.34
2023-03-06T16:05:22.356Z,97535.06
2023-03-06T16:10:45.391Z,97545.72
2023-03-06T16:16:07.112Z,97543.81
2023-03-06T16:21:28.801Z,97542.78
2023-03-06T16:26:51.748Z,97554.13
2023-03-06T16:32:13.671Z,97558.38
2023-03-06T16:37:35.357Z,97557.97
2023-03-06T16:42:57.051Z,97563.75
2023-03-06T16:48:18.759Z,97566.97
2023-03-06T16:53:40.455Z,97576.56
2023-03-06T16:59:02.153Z,97574.44
2023-03-06T17:04:23.943Z,97576.50
2023-03-06T17:09:45.670Z,97578.84
2023-03-06T17:15:08.142Z,97580.66
2023-03-06T17:20:29.855Z,97591.06
2023-03-06T17:26:04.961Z,97605.41
2023-03-06T17:31:27.943Z,97594.94
2023-03-06T17:36:49.785Z,97605.59
2023-03-06T17:42:11.496Z,97610.78
2023-03-06T17:47:33.164Z,97608.63
2023-03-06T17:52:54.869Z,97609.19
2023-03-06T17:58:16.747Z,97621.22
2023-03-06T18:03:39.017Z,97616.53
2023-03-06T18:09:01.202Z,97612.34
2023-03-06T18:14:22.898Z,97614.94
2023-03-06T18:19:44.743Z,97617.47
2023-03-06T18:25:06.695Z,97617.47
2023-03-06T18:30:28.654Z,97610.53
2023-03-06T18:35:50.410Z,97615.22
2023-03-06T18:41:13.433Z,97614.97
2023-03-06T18:46:37.780Z,97607.94
2023-03-06T18:51:59.501Z,97621.72
2023-03-06T18:57:21.291Z,97615.53
2023-03-06T19:02:43.019Z,97611.28
2023-03-06T19:08:05.035Z,97614.88
2023-03-06T19:13:26.821Z,97615.03
2023-03-06T19:18:48.910Z,97603.50
2023-03-06T19:24:13.965Z,97602.56
2023-03-06T19:29:36.051Z,97609.94
2023-03-06T19:34:59.524Z,97607.34
2023-03-06T19:40:21.256Z,97611.53
2023-03-06T19:45:44.096Z,97607.34
2023-03-06T19:51:07.052Z,97610.19
2023-03-06T19:56:30.156Z,97605.50
2023-03-06T20:01:51.959Z,97603.25
2023-03-06T20:07:13.690Z,97599.31
2023-03-06T20:12:35.631Z,97601.22
2023-03-06T20:17:57.356Z,97607.75
2023-03-06T20:23:19.093Z,97601.06
2023-03-06T20:28:42.367Z,97590.53
2023-03-06T20:34:04.636Z,97587.69
2023-03-06T20:39:26.404Z,97588.44
2023-03-06T20:44:48.114Z,97592.19
2023-03-06T20:50:10.398Z,97589.69
2023-03-06T20:55:36.531Z,97586.16
2023-03-06T21:00:59.952Z,97591.03
2023-03-06T21:06:23.968Z,97574.22
2023-03-06T21:11:46.463Z,97572.78
2023-03-06T21:17:08.189Z,97571.03
2023-03-06T21:22:30.155Z,97564.19
2023-03-06T21:27:51.904Z,97557.81
2023-03-06T21:33:13.674Z,97552.97
2023-03-06T21:38:36.161Z,97549.78
2023-03-06T21:44:00.415Z,97548.63
2023-03-06T21:49:25.948Z,97553.81
2023-03-06T21:54:49.160Z,97542.19
2023-03-06T22:00:12.769Z,97535.81
2023-03-06T22:05:34.486Z,97531.47
2023-03-06T22:10:56.169Z,97531.31
2023-03-06T22:16:18.405Z,97524.44
2023-03-06T22:21:40.246Z,97528.53
2023-03-06T22:27:01.940Z,97517.00
2023-03-06T22:32:23.826Z,97527.03
2023-03-06T22:37:45.650Z,97516.16
2023-03-06T22:43:07.307Z,97520.88
2023-03-06T22:48:29.361Z,97519.69
2023-03-06T22:53:51.141Z,97523.53
2023-03-06T22:59:12.838Z,97514.75
2023-03-06T23:04:34.530Z,97511.41
2023-03-06T23:09:56.306Z,97510.72
2023-03-06T23:15:18.085Z,97513.50
2023-03-06T23:20:43.722Z,97504.81
2023-03-06T23:26:07.512Z,97498.88
2023-03-06T23:31:30.843Z,97496.53
2023-03-06T23:36:52.578Z,97483.13
2023-03-06T23:42:14.285Z,97480.47
2023-03-06T23:47:36.095Z,97484.69
2023-03-06T23:52:57.976Z,97480.38
2023-03-06T23:58:20.586Z,97479.63
